MMAA/ACA METAR and TAF weather

Enter ICAO airport designator
Station Type Date Time Source
MMAA METAR 2019/12/14 10:43 UTC NOAA

MMAA 141043Z 35004KT 6SM SCT300 24/23 A2985 RMK 8/002 HZY


Station Type Date Time Source
MMAA Decoded METAR 2019/12/14 10:43 UTC NOAA

Acapulco / G. Alvarez, Mexico (MMAA) 16-46N 099-45W
Dec 14, 2019 - 05:43 AM EST / 2019.12.14 1043 UTC
Wind: from the N (350 degrees) at 5 MPH (4 KT):0
Visibility: 6 mile(s):0
Sky conditions: partly cloudy
Temperature: 75 F (24 C)
Dew Point: 73 F (23 C)
Relative Humidity: 94%
Pressure (altimeter): 29.85 in. Hg (1010 hPa)
ob: MMAA 141043Z 35004KT 6SM SCT300 24/23 A2985 RMK 8/002 HZY
cycle: 10

Station Type Date Time Source
MMAA TAF 2019/12/14 12:29 UTC NOAA

TAF MMAA 141129Z 1412/1518 35005KT 6SM HZ SCT300 TX30/1418Z TN22/1412Z
FM141600 23010KT P6SM SCT300
FM150200 03005KT P6SM SCT012 SCT300
FM151600 23010KT P6SM SCT300

Example: see airport list